الصفحة الرئيسية
METAR-TAF:

METAR-TAF

مطار :

مطار هونغ كونغ الدولي

هونغ كونغ, جمهورية الصين الشعبية

دائرة عرض: 22-19N, خط طول: 113-55E, ارتفاع: 9 متر

مراقبة الطقس الحالي

تاريخ ووقت الإصدار 19 دقيقة قبل الساعة 00:00UTC
ريح 12 عقدة من الشرق/الجنوب الشرقي, الاتجاه يتراوح بين الشرق و الجنوب/الجنوب الشرقي
درجة الحرارة 24°درجة مئوية
الرطوبة 78%
ضغط 1019 hPa
الرؤية 10 كم أو أكثر
غيوم قليلة على ارتفاع 2200 قدم

METAR: VHHH 210000Z 11012KT 080V160 9999 FEW022 24/20 Q1019 NOSIG

زمن: 08:19 (00:19 UTC)

توقعات

تاريخ ووقت الإصدار 1ساعة و 19 دقيقة قبل الساعة 23:00UTC
التوقعات صالحة من21 الساعة 00 UTC إلى 22 الساعة 06 UTC
ريح 10 عقدة من الشرق
الرؤية 10 كم أو أكثر
غيوم قليلة على ارتفاع 2500 قدم
غيوم متفرقة على ارتفاع 4000 قدم

TAF: VHHH 202300Z 2100/2206 09010KT 9999 FEW025 SCT040 TX27/2106Z TX28/2206Z TN24/2122Z

أرصاد الطقس والتوقعات من أكثر من 4000 مطار (تقارير الطقس للمطار METAR والتنبؤ بالطقس بالمطارTAF).

المحطات المتاحة هي النقط الصفراء والحمراء على الخريطة.

حرك المؤشر فوق النقطة لمعرفة اسم المحطة.

ثم انقر لمعرفة أرصاد وتوقعات الطقس.

لتغيير الخارطة: اضغط على الأزرار الخضراء مع رمز الصليب الأسود للتكبير. على الزر الأخضر مع شرطة للتصغير، أو على الأسهم الخضراء للخرائط المجاورة.


METAR-TAF: